sensor_id;sensor_type;location;lat;lon;timestamp;pressure;altitude;pressure_sealevel;temperature;humidity
46942;BME280;32676;52.630;4.896;2024-01-30T00:01:50;102450.25;;;7.05;85.94
46942;BME280;32676;52.630;4.896;2024-01-30T00:04:17;102457.25;;;7.06;86.17
46942;BME280;32676;52.630;4.896;2024-01-30T00:06:45;102459.84;;;7.07;86.24
46942;BME280;32676;52.630;4.896;2024-01-30T00:09:11;102459.84;;;7.09;86.38
46942;BME280;32676;52.630;4.896;2024-01-30T00:11:38;102466.00;;;7.09;86.39
46942;BME280;32676;52.630;4.896;2024-01-30T00:14:05;102477.31;;;7.11;86.52
46942;BME280;32676;52.630;4.896;2024-01-30T00:16:32;102481.69;;;7.14;86.55
46942;BME280;32676;52.630;4.896;2024-01-30T00:18:58;102482.56;;;7.13;86.63
46942;BME280;32676;52.630;4.896;2024-01-30T00:21:27;102481.69;;;7.14;86.62
46942;BME280;32676;52.630;4.896;2024-01-30T00:23:55;102491.31;;;7.15;86.82
46942;BME280;32676;52.630;4.896;2024-01-30T00:26:21;102486.91;;;7.14;86.80
46942;BME280;32676;52.630;4.896;2024-01-30T00:28:48;102487.78;;;7.15;86.76
46942;BME280;32676;52.630;4.896;2024-01-30T00:31:14;102497.41;;;7.17;86.86
46942;BME280;32676;52.630;4.896;2024-01-30T00:33:41;102498.31;;;7.19;86.94
46942;BME280;32676;52.630;4.896;2024-01-30T00:36:09;102492.16;;;7.14;86.87
46942;BME280;32676;52.630;4.896;2024-01-30T00:38:35;102486.91;;;7.13;86.97
46942;BME280;32676;52.630;4.896;2024-01-30T00:41:04;102505.28;;;7.19;87.04
46942;BME280;32676;52.630;4.896;2024-01-30T00:43:30;102504.38;;;7.18;87.00
46942;BME280;32676;52.630;4.896;2024-01-30T00:45:58;102490.38;;;7.10;87.00
46942;BME280;32676;52.630;4.896;2024-01-30T00:48:25;102492.16;;;7.16;86.82
46942;BME280;32676;52.630;4.896;2024-01-30T00:50:51;102481.69;;;7.14;86.82
46942;BME280;32676;52.630;4.896;2024-01-30T00:53:18;102496.53;;;7.15;86.98
46942;BME280;32676;52.630;4.896;2024-01-30T00:55:45;102500.03;;;7.17;86.89
46942;BME280;32676;52.630;4.896;2024-01-30T00:58:12;102486.84;;;7.05;86.93
46942;BME280;32676;52.630;4.896;2024-01-30T01:00:39;102519.22;;;7.21;87.06
46942;BME280;32676;52.630;4.896;2024-01-30T01:03:06;102515.75;;;7.22;87.12
46942;BME280;32676;52.630;4.896;2024-01-30T01:05:32;102530.59;;;7.24;87.21
46942;BME280;32676;52.630;4.896;2024-01-30T01:07:59;102546.28;;;7.27;87.26
46942;BME280;32676;52.630;4.896;2024-01-30T01:10:25;102556.78;;;7.30;87.31
46942;BME280;32676;52.630;4.896;2024-01-30T01:12:52;102562.00;;;7.30;87.33
46942;BME280;32676;52.630;4.896;2024-01-30T01:15:20;102576.88;;;7.33;87.42
46942;BME280;32676;52.630;4.896;2024-01-30T01:17:46;102588.22;;;7.37;87.28
46942;BME280;32676;52.630;4.896;2024-01-30T01:20:13;102589.97;;;7.38;87.42
46942;BME280;32676;52.630;4.896;2024-01-30T01:22:40;102600.47;;;7.41;87.50
46942;BME280;32676;52.630;4.896;2024-01-30T01:25:06;102601.31;;;7.40;87.52
46942;BME280;32676;52.630;4.896;2024-01-30T01:27:33;102603.91;;;7.34;87.54
46942;BME280;32676;52.630;4.896;2024-01-30T01:29:59;102638.91;;;7.51;87.42
46942;BME280;32676;52.630;4.896;2024-01-30T01:32:27;102648.53;;;7.52;87.43
46942;BME280;32676;52.630;4.896;2024-01-30T01:34:54;102644.16;;;7.51;87.44
46942;BME280;32676;52.630;4.896;2024-01-30T01:37:21;102659.88;;;7.54;87.38
46942;BME280;32676;52.630;4.896;2024-01-30T01:39:47;102662.53;;;7.56;87.36
46942;BME280;32676;52.630;4.896;2024-01-30T01:42:14;102670.38;;;7.57;87.38
46942;BME280;32676;52.630;4.896;2024-01-30T01:44:40;102686.09;;;7.60;87.38
46942;BME280;32676;52.630;4.896;2024-01-30T01:47:07;102695.72;;;7.63;87.27
46942;BME280;32676;52.630;4.896;2024-01-30T01:49:35;102687.84;;;7.61;87.25
46942;BME280;32676;52.630;4.896;2024-01-30T01:52:02;102687.81;;;7.58;87.18
46942;BME280;32676;52.630;4.896;2024-01-30T01:54:29;102696.59;;;7.63;87.05
46942;BME280;32676;52.630;4.896;2024-01-30T01:56:56;102700.09;;;7.65;87.29
46942;BME280;32676;52.630;4.896;2024-01-30T01:59:23;102707.09;;;7.66;87.29
46942;BME280;32676;52.630;4.896;2024-01-30T02:01:51;102698.28;;;7.58;87.25
46942;BME280;32676;52.630;4.896;2024-01-30T02:04:18;102729.81;;;7.71;87.28
46942;BME280;32676;52.630;4.896;2024-01-30T02:06:46;102715.84;;;7.68;87.13
46942;BME280;32676;52.630;4.896;2024-01-30T02:09:13;102715.84;;;7.68;87.11
46942;BME280;32676;52.630;4.896;2024-01-30T02:11:40;102713.22;;;7.67;87.14
46942;BME280;32676;52.630;4.896;2024-01-30T02:14:07;102707.97;;;7.67;87.08
46942;BME280;32676;52.630;4.896;2024-01-30T02:16:33;102705.28;;;7.59;86.95
46942;BME280;32676;52.630;4.896;2024-01-30T02:19:00;102707.97;;;7.67;86.91
46942;BME280;32676;52.630;4.896;2024-01-30T02:21:28;102709.72;;;7.66;86.93
46942;BME280;32676;52.630;4.896;2024-01-30T02:23:54;102710.56;;;7.65;86.82
46942;BME280;32676;52.630;4.896;2024-01-30T02:26:21;102696.59;;;7.63;86.93
46942;BME280;32676;52.630;4.896;2024-01-30T02:28:48;102700.97;;;7.63;86.88
46942;BME280;32676;52.630;4.896;2024-01-30T02:31:14;102693.09;;;7.61;87.01
46942;BME280;32676;52.630;4.896;2024-01-30T02:33:41;102682.59;;;7.58;86.92
46942;BME280;32676;52.630;4.896;2024-01-30T02:36:07;102700.09;;;7.62;87.03
46942;BME280;32676;52.630;4.896;2024-01-30T02:38:35;102693.97;;;7.63;87.08
46942;BME280;32676;52.630;4.896;2024-01-30T02:41:02;102696.59;;;7.63;87.05
46942;BME280;32676;52.630;4.896;2024-01-30T02:43:28;102690.50;;;7.63;87.13
46942;BME280;32676;52.630;4.896;2024-01-30T02:45:55;102681.75;;;7.61;87.01
46942;BME280;32676;52.630;4.896;2024-01-30T02:48:21;102671.22;;;7.56;86.99
46942;BME280;32676;52.630;4.896;2024-01-30T02:50:48;102672.13;;;7.58;86.77
46942;BME280;32676;52.630;4.896;2024-01-30T02:53:14;102661.66;;;7.55;86.89
46942;BME280;32676;52.630;4.896;2024-01-30T02:55:42;102677.34;;;7.58;86.78
46942;BME280;32676;52.630;4.896;2024-01-30T02:58:08;102668.63;;;7.58;86.73
46942;BME280;32676;52.630;4.896;2024-01-30T03:00:35;102674.75;;;7.57;86.85
46942;BME280;32676;52.630;4.896;2024-01-30T03:03:02;102660.75;;;7.55;86.69
46942;BME280;32676;52.630;4.896;2024-01-30T03:05:29;102653.81;;;7.55;86.94
46942;BME280;32676;52.630;4.896;2024-01-30T03:07:55;102636.25;;;7.45;86.86
46942;BME280;32676;52.630;4.896;2024-01-30T03:10:22;102645.91;;;7.50;86.81
46942;BME280;32676;52.630;4.896;2024-01-30T03:12:50;102644.16;;;7.51;86.94
46942;BME280;32676;52.630;4.896;2024-01-30T03:15:16;102639.72;;;7.44;87.09
46942;BME280;32676;52.630;4.896;2024-01-30T03:17:43;102645.91;;;7.52;86.97
46942;BME280;32676;52.630;4.896;2024-01-30T03:20:10;102651.16;;;7.52;87.02
46942;BME280;32676;52.630;4.896;2024-01-30T03:22:37;102654.66;;;7.54;87.13
46942;BME280;32676;52.630;4.896;2024-01-30T03:25:04;102668.63;;;7.56;87.20
46942;BME280;32676;52.630;4.896;2024-01-30T03:27:31;102667.78;;;7.57;87.22
46942;BME280;32676;52.630;4.896;2024-01-30T03:29:59;102674.75;;;7.58;87.25
46942;BME280;32676;52.630;4.896;2024-01-30T03:32:25;102684.34;;;7.59;87.35
46942;BME280;32676;52.630;4.896;2024-01-30T03:34:52;102670.31;;;7.51;87.13
46942;BME280;32676;52.630;4.896;2024-01-30T03:37:18;102700.09;;;7.62;87.26
46942;BME280;32676;52.630;4.896;2024-01-30T03:39:45;102705.34;;;7.65;87.24
46942;BME280;32676;52.630;4.896;2024-01-30T03:42:11;102705.34;;;7.65;87.27
46942;BME280;32676;52.630;4.896;2024-01-30T03:44:38;102697.47;;;7.62;87.23
46942;BME280;32676;52.630;4.896;2024-01-30T03:47:06;102714.06;;;7.67;87.13
46942;BME280;32676;52.630;4.896;2024-01-30T03:49:32;102709.66;;;7.62;87.03
46942;BME280;32676;52.630;4.896;2024-01-30T03:51:59;102722.84;;;7.69;87.00
46942;BME280;32676;52.630;4.896;2024-01-30T03:54:25;102734.19;;;7.72;87.06
46942;BME280;32676;52.630;4.896;2024-01-30T03:56:52;102731.59;;;7.72;86.91
46942;BME280;32676;52.630;4.896;2024-01-30T03:59:18;102731.59;;;7.72;86.89
46942;BME280;32676;52.630;4.896;2024-01-30T04:01:49;102731.59;;;7.72;86.87
46942;BME280;32676;52.630;4.896;2024-01-30T04:04:17;102722.84;;;7.69;86.80
46942;BME280;32676;52.630;4.896;2024-01-30T04:06:43;102721.94;;;7.69;86.79
46942;BME280;32676;52.630;4.896;2024-01-30T04:09:10;102722.84;;;7.69;86.81
46942;BME280;32676;52.630;4.896;2024-01-30T04:11:38;102719.31;;;7.67;86.83
46942;BME280;32676;52.630;4.896;2024-01-30T04:14:04;102718.47;;;7.68;86.76
46942;BME280;32676;52.630;4.896;2024-01-30T04:16:31;102712.34;;;7.66;86.71
46942;BME280;32676;52.630;4.896;2024-01-30T04:18:58;102699.25;;;7.65;86.72
46942;BME280;32676;52.630;4.896;2024-01-30T04:21:25;102705.34;;;7.65;86.66
46942;BME280;32676;52.630;4.896;2024-01-30T04:23:53;102685.19;;;7.54;86.64
46942;BME280;32676;52.630;4.896;2024-01-30T04:26:19;102694.88;;;7.62;86.72
46942;BME280;32676;52.630;4.896;2024-01-30T04:28:46;102689.63;;;7.62;86.74
46942;BME280;32676;52.630;4.896;2024-01-30T04:31:12;102670.31;;;7.51;86.89
46942;BME280;32676;52.630;4.896;2024-01-30T04:33:39;102696.59;;;7.63;86.75
46942;BME280;32676;52.630;4.896;2024-01-30T04:36:08;102696.59;;;7.63;86.93
46942;BME280;32676;52.630;4.896;2024-01-30T04:38:37;102676.41;;;7.50;87.01
46942;BME280;32676;52.630;4.896;2024-01-30T04:41:05;102703.59;;;7.64;87.03
46942;BME280;32676;52.630;4.896;2024-01-30T04:43:31;102705.34;;;7.65;87.06
46942;BME280;32676;52.630;4.896;2024-01-30T04:45:58;102706.25;;;7.66;86.98
46942;BME280;32676;52.630;4.896;2024-01-30T04:48:24;102708.84;;;7.67;87.15
46942;BME280;32676;52.630;4.896;2024-01-30T04:50:51;102709.75;;;7.68;87.09
46942;BME280;32676;52.630;4.896;2024-01-30T04:53:17;102705.28;;;7.59;86.94
46942;BME280;32676;52.630;4.896;2024-01-30T04:55:45;102714.06;;;7.64;87.13
46942;BME280;32676;52.630;4.896;2024-01-30T04:58:12;102731.53;;;7.68;87.14
46942;BME280;32676;52.630;4.896;2024-01-30T05:00:38;102733.31;;;7.73;87.23
46942;BME280;32676;52.630;4.896;2024-01-30T05:03:05;102751.69;;;7.76;87.11
46942;BME280;32676;52.630;4.896;2024-01-30T05:05:31;102763.94;;;7.80;87.07
46942;BME280;32676;52.630;4.896;2024-01-30T05:07:58;102770.06;;;7.82;87.07
46942;BME280;32676;52.630;4.896;2024-01-30T05:10:24;102764.81;;;7.82;87.03
46942;BME280;32676;52.630;4.896;2024-01-30T05:12:52;102764.81;;;7.82;87.15
46942;BME280;32676;52.630;4.896;2024-01-30T05:15:19;102771.81;;;7.83;87.21
46942;BME280;32676;52.630;4.896;2024-01-30T05:17:45;102779.69;;;7.84;87.04
46942;BME280;32676;52.630;4.896;2024-01-30T05:20:12;102784.94;;;7.86;87.10
46942;BME280;32676;52.630;4.896;2024-01-30T05:22:39;102779.66;;;7.81;87.12
46942;BME280;32676;52.630;4.896;2024-01-30T05:25:10;102786.69;;;7.87;86.97
46942;BME280;32676;52.630;4.896;2024-01-30T05:27:36;102789.31;;;7.87;87.09
46942;BME280;32676;52.630;4.896;2024-01-30T05:30:05;102793.66;;;7.86;87.08
46942;BME280;32676;52.630;4.896;2024-01-30T05:32:32;102789.31;;;7.87;87.06
46942;BME280;32676;52.630;4.896;2024-01-30T05:34:59;102795.41;;;7.87;86.96
46942;BME280;32676;52.630;4.896;2024-01-30T05:37:25;102800.66;;;7.89;87.00
46942;BME280;32676;52.630;4.896;2024-01-30T05:39:52;102796.31;;;7.88;86.97
46942;BME280;32676;52.630;4.896;2024-01-30T05:42:18;102793.69;;;7.88;87.00
46942;BME280;32676;52.630;4.896;2024-01-30T05:44:45;102778.75;;;7.78;87.03
46942;BME280;32676;52.630;4.896;2024-01-30T05:47:13;102791.03;;;7.85;87.02
46942;BME280;32676;52.630;4.896;2024-01-30T05:49:39;102807.69;;;7.92;86.97
46942;BME280;32676;52.630;4.896;2024-01-30T05:52:06;102798.03;;;7.86;86.92
46942;BME280;32676;52.630;4.896;2024-01-30T05:54:32;102806.78;;;7.91;87.07
46942;BME280;32676;52.630;4.896;2024-01-30T05:56:59;102806.78;;;7.91;87.16
46942;BME280;32676;52.630;4.896;2024-01-30T05:59:25;102806.78;;;7.91;87.07
46942;BME280;32676;52.630;4.896;2024-01-30T06:01:52;102808.56;;;7.92;87.21
46942;BME280;32676;52.630;4.896;2024-01-30T06:04:20;102816.44;;;7.94;87.17
46942;BME280;32676;52.630;4.896;2024-01-30T06:06:46;102833.06;;;7.97;87.13
46942;BME280;32676;52.630;4.896;2024-01-30T06:09:13;102841.78;;;7.99;87.29
46942;BME280;32676;52.630;4.896;2024-01-30T06:11:40;102847.03;;;7.99;87.26
46942;BME280;32676;52.630;4.896;2024-01-30T06:14:06;102854.00;;;8.00;87.29
46942;BME280;32676;52.630;4.896;2024-01-30T06:16:33;102869.75;;;8.03;87.36
46942;BME280;32676;52.630;4.896;2024-01-30T06:18:59;102881.13;;;8.05;87.42
46942;BME280;32676;52.630;4.896;2024-01-30T06:21:27;102874.09;;;8.01;87.22
46942;BME280;32676;52.630;4.896;2024-01-30T06:23:54;102894.31;;;8.12;87.49
46942;BME280;32676;52.630;4.896;2024-01-30T06:26:20;102894.31;;;8.12;87.46
46942;BME280;32676;52.630;4.896;2024-01-30T06:28:47;102910.06;;;8.16;87.34
46942;BME280;32676;52.630;4.896;2024-01-30T06:31:13;102900.34;;;8.06;87.29
46942;BME280;32676;52.630;4.896;2024-01-30T06:33:40;102915.25;;;8.15;87.46
46942;BME280;32676;52.630;4.896;2024-01-30T06:36:07;102936.31;;;8.21;87.48
46942;BME280;32676;52.630;4.896;2024-01-30T06:38:35;102938.03;;;8.22;87.45
46942;BME280;32676;52.630;4.896;2024-01-30T06:41:02;102949.41;;;8.24;87.43
46942;BME280;32676;52.630;4.896;2024-01-30T06:43:28;102954.69;;;8.25;87.33
46942;BME280;32676;52.630;4.896;2024-01-30T06:45:55;102958.19;;;8.27;87.25
46942;BME280;32676;52.630;4.896;2024-01-30T06:48:21;102957.31;;;8.27;87.26
46942;BME280;32676;52.630;4.896;2024-01-30T06:50:48;102966.06;;;8.29;87.22
46942;BME280;32676;52.630;4.896;2024-01-30T06:53:16;102964.31;;;8.28;87.12
46942;BME280;32676;52.630;4.896;2024-01-30T06:55:43;102967.78;;;8.27;87.26
46942;BME280;32676;52.630;4.896;2024-01-30T06:58:10;102973.06;;;8.30;87.20
46942;BME280;32676;52.630;4.896;2024-01-30T07:00:37;102969.53;;;8.25;87.36
46942;BME280;32676;52.630;4.896;2024-01-30T07:03:04;102976.59;;;8.32;87.33
46942;BME280;32676;52.630;4.896;2024-01-30T07:05:31;102989.72;;;8.35;87.30
46942;BME280;32676;52.630;4.896;2024-01-30T07:07:58;102999.34;;;8.36;87.31
46942;BME280;32676;52.630;4.896;2024-01-30T07:10:24;103006.34;;;8.37;87.37
46942;BME280;32676;52.630;4.896;2024-01-30T07:12:52;103011.63;;;8.40;87.38
46942;BME280;32676;52.630;4.896;2024-01-30T07:15:19;103029.16;;;8.44;87.53
46942;BME280;32676;52.630;4.896;2024-01-30T07:17:46;103035.31;;;8.47;87.37
46942;BME280;32676;52.630;4.896;2024-01-30T07:20:12;103039.66;;;8.44;87.51
46942;BME280;32676;52.630;4.896;2024-01-30T07:22:39;103051.94;;;8.50;87.37
46942;BME280;32676;52.630;4.896;2024-01-30T07:25:07;103056.31;;;8.51;87.41
46942;BME280;32676;52.630;4.896;2024-01-30T07:27:33;103088.66;;;8.55;87.46
46942;BME280;32676;52.630;4.896;2024-01-30T07:30:01;103086.97;;;8.57;87.63
46942;BME280;32676;52.630;4.896;2024-01-30T07:32:28;103088.72;;;8.58;87.50
46942;BME280;32676;52.630;4.896;2024-01-30T07:34:54;103104.50;;;8.61;87.54
46942;BME280;32676;52.630;4.896;2024-01-30T07:37:21;103104.44;;;8.58;87.70
46942;BME280;32676;52.630;4.896;2024-01-30T07:39:47;103117.59;;;8.64;87.52
46942;BME280;32676;52.630;4.896;2024-01-30T07:42:14;103109.69;;;8.58;87.29
46942;BME280;32676;52.630;4.896;2024-01-30T07:44:40;103134.28;;;8.69;87.36
46942;BME280;32676;52.630;4.896;2024-01-30T07:47:08;103143.03;;;8.71;87.44
46942;BME280;32676;52.630;4.896;2024-01-30T07:49:35;103152.69;;;8.72;87.36
46942;BME280;32676;52.630;4.896;2024-01-30T07:52:02;103145.66;;;8.68;87.33
46942;BME280;32676;52.630;4.896;2024-01-30T07:54:30;103156.16;;;8.71;87.45
46942;BME280;32676;52.630;4.896;2024-01-30T07:56:58;103158.81;;;8.74;87.21
46942;BME280;32676;52.630;4.896;2024-01-30T07:59:25;103171.09;;;8.78;87.17
46942;BME280;32676;52.630;4.896;2024-01-30T08:02:04;103207.91;;;8.88;87.01
46942;BME280;32676;52.630;4.896;2024-01-30T08:04:32;103241.22;;;8.95;87.17
46942;BME280;32676;52.630;4.896;2024-01-30T08:06:58;103281.56;;;9.03;87.22
46942;BME280;32676;52.630;4.896;2024-01-30T08:09:25;103309.63;;;9.10;86.95
46942;BME280;32676;52.630;4.896;2024-01-30T08:11:51;103338.56;;;9.16;86.96
46942;BME280;32676;52.630;4.896;2024-01-30T08:14:18;103360.56;;;9.25;86.66
46942;BME280;32676;52.630;4.896;2024-01-30T08:16:45;103388.59;;;9.29;86.55
46942;BME280;32676;52.630;4.896;2024-01-30T08:19:11;103393.91;;;9.32;86.36
46942;BME280;32676;52.630;4.896;2024-01-30T08:21:39;103397.31;;;9.28;86.12
46942;BME280;32676;52.630;4.896;2024-01-30T08:24:07;103408.72;;;9.31;85.87
46942;BME280;32676;52.630;4.896;2024-01-30T08:26:33;103439.53;;;9.43;85.93
46942;BME280;32676;52.630;4.896;2024-01-30T08:29:00;103451.81;;;9.44;85.82
46942;BME280;32676;52.630;4.896;2024-01-30T08:31:27;103464.13;;;9.50;85.73
46942;BME280;32676;52.630;4.896;2024-01-30T08:33:54;103465.84;;;9.49;85.65
46942;BME280;32676;52.630;4.896;2024-01-30T08:36:20;103494.81;;;9.54;85.67
46942;BME280;32676;52.630;4.896;2024-01-30T08:38:48;103501.88;;;9.58;85.56
46942;BME280;32676;52.630;4.896;2024-01-30T08:41:15;103513.28;;;9.60;85.62
46942;BME280;32676;52.630;4.896;2024-01-30T08:43:41;103517.66;;;9.59;85.57
46942;BME280;32676;52.630;4.896;2024-01-30T08:46:10;103531.75;;;9.66;85.42
46942;BME280;32676;52.630;4.896;2024-01-30T08:48:36;103555.44;;;9.71;85.68
46942;BME280;32676;52.630;4.896;2024-01-30T08:51:06;103573.00;;;9.75;85.71
46942;BME280;32676;52.630;4.896;2024-01-30T08:53:34;103588.81;;;9.78;85.87
46942;BME280;32676;52.630;4.896;2024-01-30T08:56:03;103602.00;;;9.81;86.03
46942;BME280;32676;52.630;4.896;2024-01-30T08:58:30;103603.75;;;9.80;85.67
46942;BME280;32676;52.630;4.896;2024-01-30T09:00:56;103600.25;;;9.82;85.66
46942;BME280;32676;52.630;4.896;2024-01-30T09:03:23;103618.66;;;9.83;85.36
46942;BME280;32676;52.630;4.896;2024-01-30T09:05:50;103609.00;;;9.82;85.15
46942;BME280;32676;52.630;4.896;2024-01-30T09:08:17;103607.28;;;9.83;84.63
46942;BME280;32676;52.630;4.896;2024-01-30T09:10:44;103614.31;;;9.85;84.65
46942;BME280;32676;52.630;4.896;2024-01-30T09:13:12;103602.91;;;9.83;83.97
46942;BME280;32676;52.630;4.896;2024-01-30T09:15:39;103601.13;;;9.82;83.83
46942;BME280;32676;52.630;4.896;2024-01-30T09:18:06;103593.25;;;9.80;83.84
46942;BME280;32676;52.630;4.896;2024-01-30T09:20:32;103588.00;;;9.80;83.89
46942;BME280;32676;52.630;4.896;2024-01-30T09:23:00;103580.06;;;9.77;83.44
46942;BME280;32676;52.630;4.896;2024-01-30T09:25:27;103567.75;;;9.75;83.37
46942;BME280;32676;52.630;4.896;2024-01-30T09:27:53;103554.59;;;9.72;83.57
46942;BME280;32676;52.630;4.896;2024-01-30T09:30:22;103549.34;;;9.72;83.43
46942;BME280;32676;52.630;4.896;2024-01-30T09:32:48;103543.19;;;9.70;83.42
46942;BME280;32676;52.630;4.896;2024-01-30T09:35:15;103543.19;;;9.70;83.33
46942;BME280;32676;52.630;4.896;2024-01-30T09:37:42;103535.25;;;9.67;83.63
46942;BME280;32676;52.630;4.896;2024-01-30T09:40:09;103536.16;;;9.69;83.52
46942;BME280;32676;52.630;4.896;2024-01-30T09:42:36;103520.34;;;9.66;83.36
46942;BME280;32676;52.630;4.896;2024-01-30T09:45:03;103486.88;;;9.51;83.40
46942;BME280;32676;52.630;4.896;2024-01-30T09:47:32;103486.06;;;9.53;83.50
46942;BME280;32676;52.630;4.896;2024-01-30T09:50:04;103472.97;;;9.56;83.21
46942;BME280;32676;52.630;4.896;2024-01-30T09:52:31;103450.09;;;9.49;83.49
46942;BME280;32676;52.630;4.896;2024-01-30T09:54:59;103426.41;;;9.43;83.86
46942;BME280;32676;52.630;4.896;2024-01-30T09:57:26;103399.22;;;9.38;83.74
46942;BME280;32676;52.630;4.896;2024-01-30T09:59:52;103367.59;;;9.29;84.07
46942;BME280;32676;52.630;4.896;2024-01-30T10:02:20;103355.34;;;9.28;84.39
46942;BME280;32676;52.630;4.896;2024-01-30T10:04:49;103346.56;;;9.26;84.62
46942;BME280;32676;52.630;4.896;2024-01-30T10:07:15;103336.03;;;9.22;84.81
46942;BME280;32676;52.630;4.896;2024-01-30T10:09:42;103326.44;;;9.23;84.96
46942;BME280;32676;52.630;4.896;2024-01-30T10:12:09;103317.63;;;9.19;85.21
46942;BME280;32676;52.630;4.896;2024-01-30T10:14:37;103319.38;;;9.19;85.39
46942;BME280;32676;52.630;4.896;2024-01-30T10:17:04;103337.78;;;9.23;85.67
46942;BME280;32676;52.630;4.896;2024-01-30T10:19:31;103352.72;;;9.28;85.81
46942;BME280;32676;52.630;4.896;2024-01-30T10:22:01;103334.28;;;9.21;85.96
46942;BME280;32676;52.630;4.896;2024-01-30T10:24:27;103343.03;;;9.23;86.07
46942;BME280;32676;52.630;4.896;2024-01-30T10:26:54;103339.50;;;9.20;86.12
46942;BME280;32676;52.630;4.896;2024-01-30T10:29:21;103345.69;;;9.25;85.87
46942;BME280;32676;52.630;4.896;2024-01-30T10:31:57;103346.56;;;9.26;86.13
46942;BME280;32676;52.630;4.896;2024-01-30T10:34:24;103355.34;;;9.28;86.21
46942;BME280;32676;52.630;4.896;2024-01-30T10:37:00;103339.56;;;9.25;86.26
46942;BME280;32676;52.630;4.896;2024-01-30T10:39:29;103333.44;;;9.22;86.31
46942;BME280;32676;52.630;4.896;2024-01-30T10:42:02;103343.09;;;9.27;86.52
46942;BME280;32676;52.630;4.896;2024-01-30T10:44:36;103336.06;;;9.26;86.27
46942;BME280;32676;52.630;4.896;2024-01-30T10:47:06;103327.28;;;9.20;86.36
46942;BME280;32676;52.630;4.896;2024-01-30T10:49:36;103315.00;;;9.19;86.19
46942;BME280;32676;52.630;4.896;2024-01-30T10:52:05;103301.88;;;9.18;85.94
46942;BME280;32676;52.630;4.896;2024-01-30T10:54:33;103318.53;;;9.21;85.66
46942;BME280;32676;52.630;4.896;2024-01-30T10:57:00;103315.88;;;9.20;85.68
46942;BME280;32676;52.630;4.896;2024-01-30T10:59:29;103344.84;;;9.28;85.49
46942;BME280;32676;52.630;4.896;2024-01-30T11:01:56;103352.72;;;9.26;85.39
46942;BME280;32676;52.630;4.896;2024-01-30T11:04:23;103357.16;;;9.32;85.32
46942;BME280;32676;52.630;4.896;2024-01-30T11:06:50;103355.34;;;9.28;85.33
46942;BME280;32676;52.630;4.896;2024-01-30T11:09:19;103351.00;;;9.28;85.14
46942;BME280;32676;52.630;4.896;2024-01-30T11:11:49;103331.69;;;9.25;85.25
46942;BME280;32676;52.630;4.896;2024-01-30T11:14:16;103333.44;;;9.24;85.15
46942;BME280;32676;52.630;4.896;2024-01-30T11:16:42;103358.88;;;9.30;85.32
46942;BME280;32676;52.630;4.896;2024-01-30T11:19:10;103322.88;;;9.19;85.31
46942;BME280;32676;52.630;4.896;2024-01-30T11:21:41;103310.63;;;9.17;85.61
46942;BME280;32676;52.630;4.896;2024-01-30T11:24:08;103298.34;;;9.16;85.91
46942;BME280;32676;52.630;4.896;2024-01-30T11:26:35;103304.50;;;9.19;85.97
46942;BME280;32676;52.630;4.896;2024-01-30T11:29:03;103293.09;;;9.16;86.12
46942;BME280;32676;52.630;4.896;2024-01-30T11:31:30;103308.91;;;9.20;86.53
46942;BME280;32676;52.630;4.896;2024-01-30T11:33:57;103322.06;;;9.23;86.39
46942;BME280;32676;52.630;4.896;2024-01-30T11:36:25;103340.50;;;9.28;86.41
46942;BME280;32676;52.630;4.896;2024-01-30T11:38:52;103341.38;;;9.29;86.50
46942;BME280;32676;52.630;4.896;2024-01-30T11:41:19;103341.38;;;9.29;86.20
46942;BME280;32676;52.630;4.896;2024-01-30T11:43:52;103328.97;;;9.18;86.04
46942;BME280;32676;52.630;4.896;2024-01-30T11:46:19;103348.38;;;9.28;86.00
46942;BME280;32676;52.630;4.896;2024-01-30T11:48:45;103349.25;;;9.29;85.67
46942;BME280;32676;52.630;4.896;2024-01-30T11:51:12;103351.00;;;9.28;85.75
46942;BME280;32676;52.630;4.896;2024-01-30T11:53:39;103341.34;;;9.27;85.66
46942;BME280;32676;52.630;4.896;2024-01-30T11:56:07;103332.59;;;9.27;85.59
46942;BME280;32676;52.630;4.896;2024-01-30T11:58:34;103323.81;;;9.23;85.74
46942;BME280;32676;52.630;4.896;2024-01-30T12:01:02;103307.13;;;9.19;85.47
46942;BME280;32676;52.630;4.896;2024-01-30T12:03:28;103304.50;;;9.19;85.57
46942;BME280;32676;52.630;4.896;2024-01-30T12:05:55;103301.88;;;9.19;85.54
46942;BME280;32676;52.630;4.896;2024-01-30T12:08:23;103301.03;;;9.20;85.56
46942;BME280;32676;52.630;4.896;2024-01-30T12:10:55;103293.97;;;9.16;85.47
46942;BME280;32676;52.630;4.896;2024-01-30T12:13:22;103281.72;;;9.15;85.30
46942;BME280;32676;52.630;4.896;2024-01-30T12:15:48;103284.38;;;9.17;85.37
46942;BME280;32676;52.630;4.896;2024-01-30T12:18:18;103269.28;;;9.02;85.43
46942;BME280;32676;52.630;4.896;2024-01-30T12:20:45;103283.50;;;9.18;85.61
46942;BME280;32676;52.630;4.896;2024-01-30T12:23:12;103263.19;;;9.01;85.55
46942;BME280;32676;52.630;4.896;2024-01-30T12:25:38;103298.41;;;9.19;85.80
46942;BME280;32676;52.630;4.896;2024-01-30T12:28:05;103301.03;;;9.20;85.66
46942;BME280;32676;52.630;4.896;2024-01-30T12:30:31;103307.97;;;9.18;85.84
46942;BME280;32676;52.630;4.896;2024-01-30T12:32:58;103334.34;;;9.28;85.66
46942;BME280;32676;52.630;4.896;2024-01-30T12:35:26;103329.94;;;9.25;85.50
46942;BME280;32676;52.630;4.896;2024-01-30T12:37:52;103336.13;;;9.29;85.45
46942;BME280;32676;52.630;4.896;2024-01-30T12:40:19;103342.25;;;9.31;85.22
46942;BME280;32676;52.630;4.896;2024-01-30T12:42:46;103344.88;;;9.31;84.99
46942;BME280;32676;52.630;4.896;2024-01-30T12:45:14;103312.34;;;9.18;85.05
46942;BME280;32676;52.630;4.896;2024-01-30T12:47:40;103330.88;;;9.29;84.86
46942;BME280;32676;52.630;4.896;2024-01-30T12:50:07;103330.88;;;9.29;85.18
46942;BME280;32676;52.630;4.896;2024-01-30T12:52:35;103320.31;;;9.22;85.30
46942;BME280;32676;52.630;4.896;2024-01-30T12:55:02;103339.59;;;9.28;85.49
46942;BME280;32676;52.630;4.896;2024-01-30T12:57:29;103330.88;;;9.29;85.53
46942;BME280;32676;52.630;4.896;2024-01-30T12:59:56;103337.00;;;9.31;85.78